Main page
METAR-TAF:

METAR-TAF

Airports :

Nuremberg Airport

Nuremberg, Germany

latitude: 49-30N, longitude: 011-03E, elevation: 318 m

Current weather observation

The report was made 20 minutes ago, at 18:50 UTC
Wind 3 kt from the South/Southwest, varying between South and Southwest
Temperature 8°C
Humidity 87%
Pressure 1030 hPa
Visibility 10 km or more
no clouds below 1500 m and no cumulonimbus

METAR: EDDN 131850Z 20003KT 170V230 CAVOK 08/06 Q1030 NOSIG

Time: 20:10 (19:10 UTC)

Forecast

The report was made 2 hours and 10 minutes ago, at 17:00 UTC
Forecast valid from 13 at 18 UTC to 14 at 18 UTC
Wind 5 kt from the Southwest
Visibility 10 km or more
Few clouds at a height of 2500 ft
Becoming
from 13 at 19 UTC to 13 at 22 UTC
Wind 4 kt from the East/Southeast
Probability 40% :
Temporary
from 14 at 04 UTC to 14 at 08 UTC
Visibility: 4000 m
patches of fog

TAF: EDDN 131700Z 1318/1418 23005KT 9999 FEW025 BECMG 1319/1322 12004KT PROB40 TEMPO 1404/1408 4000 BCFG

Weather observations and forecasts of more than 4000 airports (METAR and TAF reports).

The available stations are represented by yellow and red dots on the map.

Hover mouse over dot to see the name of the station.

Then click to see weather observations and forecasts.

To change the map : click on the green buttons with a black cross to zoom in, on the green button with a dash to zoom out, or on the green arrows for adjacent maps.


METAR-TAF: